Time;durP1;ratioP1;P1;durP2;ratioP2;P2;SDS_P1;SDS_P2;PMS_P1;PMS_P2;Temp;Humidity;BMP_temperature;BMP_pressure;BME280_temperature;BME280_humidity;BME280_pressure;Samples;Min_cycle;Max_cycle;Signal;HPM_P1;HPM_P2
2024/01/13 00:01:47;;;;;;;43.42;16.75;;;;;;;;;;5010011;28;20063;-75
2024/01/13 00:04:12;;;;;;;45.08;15.13;;;;;;;;;;5028130;28;20072;-75
2024/01/13 00:06:37;;;;;;;49.30;16.98;;;;;;;;;;5009066;28;20042;-75
2024/01/13 00:09:03;;;;;;;41.92;16.42;;;;;;;;;;5002911;28;20041;-75
2024/01/13 00:11:28;;;;;;;39.25;16.48;;;;;;;;;;4989362;28;20049;-74
2024/01/13 00:13:53;;;;;;;50.10;16.77;;;;;;;;;;4989596;28;20049;-75
2024/01/13 00:16:19;;;;;;;36.15;14.20;;;;;;;;;;4989957;28;20641;-74
2024/01/13 00:18:44;;;;;;;35.58;14.75;;;;;;;;;;5007461;28;20037;-74
2024/01/13 00:21:10;;;;;;;35.88;14.05;;;;;;;;;;4989811;28;20046;-74
2024/01/13 00:23:36;;;;;;;34.92;14.13;;;;;;;;;;4990759;28;20423;-75
2024/01/13 00:26:01;;;;;;;37.00;14.07;;;;;;;;;;5011437;28;20538;-74
2024/01/13 00:28:27;;;;;;;34.90;13.48;;;;;;;;;;5018994;28;20022;-75
2024/01/13 00:30:52;;;;;;;37.17;14.63;;;;;;;;;;4997097;28;20044;-75
2024/01/13 00:33:17;;;;;;;41.63;13.75;;;;;;;;;;5009393;28;20482;-74
2024/01/13 00:35:43;;;;;;;36.85;14.73;;;;;;;;;;5007473;28;20126;-75
2024/01/13 00:38:08;;;;;;;46.03;15.00;;;;;;;;;;5019436;28;20088;-74
2024/01/13 00:40:33;;;;;;;44.40;14.40;;;;;;;;;;4989581;28;20427;-75
2024/01/13 00:43:00;;;;;;;42.28;14.52;;;;;;;;;;5008032;28;20495;-75
2024/01/13 00:45:25;;;;;;;40.63;13.73;;;;;;;;;;4990699;28;20046;-74
2024/01/13 00:47:50;;;;;;;35.33;14.00;;;;;;;;;;5007150;28;20399;-74
2024/01/13 00:50:16;;;;;;;41.22;14.35;;;;;;;;;;5008572;28;20061;-74
2024/01/13 00:52:41;;;;;;;36.55;14.52;;;;;;;;;;5026104;28;20032;-74
2024/01/13 00:55:07;;;;;;;38.05;13.70;;;;;;;;;;5024429;28;20036;-75
2024/01/13 00:57:32;;;;;;;33.15;13.27;;;;;;;;;;5026184;28;20030;-74
2024/01/13 00:59:58;;;;;;;42.20;14.68;;;;;;;;;;5008487;28;20033;-75
2024/01/13 01:02:23;;;;;;;33.72;14.05;;;;;;;;;;5026021;28;20519;-75
2024/01/13 01:04:48;;;;;;;48.75;14.73;;;;;;;;;;5004272;28;20032;-75
2024/01/13 01:07:14;;;;;;;38.13;13.57;;;;;;;;;;5006487;28;20025;-74
2024/01/13 01:09:39;;;;;;;38.25;14.57;;;;;;;;;;5017759;28;20041;-75
2024/01/13 01:12:05;;;;;;;36.17;13.80;;;;;;;;;;5026109;28;20040;-75
2024/01/13 01:14:30;;;;;;;34.30;13.15;;;;;;;;;;5025913;28;20197;-74
2024/01/13 01:16:56;;;;;;;35.80;13.20;;;;;;;;;;5025093;28;20434;-74
2024/01/13 01:19:21;;;;;;;34.97;13.90;;;;;;;;;;5026137;28;20094;-75
2024/01/13 01:21:46;;;;;;;36.25;14.60;;;;;;;;;;5026106;28;20037;-74
2024/01/13 01:24:12;;;;;;;46.80;15.77;;;;;;;;;;5023069;28;20558;-74
2024/01/13 01:26:37;;;;;;;37.25;13.85;;;;;;;;;;5008200;28;20045;-74
2024/01/13 01:29:02;;;;;;;39.42;14.88;;;;;;;;;;5007648;28;20045;-74
2024/01/13 01:31:28;;;;;;;39.10;15.15;;;;;;;;;;5026320;28;20021;-74
2024/01/13 01:33:53;;;;;;;33.78;13.82;;;;;;;;;;5025581;28;20060;-75
2024/01/13 01:36:18;;;;;;;32.40;14.10;;;;;;;;;;5007614;28;20068;-74
2024/01/13 01:38:44;;;;;;;35.67;13.30;;;;;;;;;;5003988;28;20582;-74
2024/01/13 01:41:16;;;;;;;34.03;13.93;;;;;;;;;;5026230;28;20048;-75
2024/01/13 01:43:41;;;;;;;29.50;12.63;;;;;;;;;;5026057;28;20107;-74
2024/01/13 01:46:07;;;;;;;39.05;14.02;;;;;;;;;;5012859;28;20143;-74
2024/01/13 01:48:37;;;;;;;40.95;14.48;;;;;;;;;;5032958;28;20034;-74
2024/01/13 01:51:04;;;;;;;35.90;13.27;;;;;;;;;;5006993;28;20044;-75
2024/01/13 01:53:30;;;;;;;40.97;14.07;;;;;;;;;;5033482;28;20041;-74
2024/01/13 01:55:57;;;;;;;39.42;14.90;;;;;;;;;;5044412;28;20123;-74
2024/01/13 01:58:22;;;;;;;42.92;15.95;;;;;;;;;;5045617;28;20442;-74
2024/01/13 02:00:49;;;;;;;43.95;15.30;;;;;;;;;;5043473;28;20544;-75
2024/01/13 02:03:14;;;;;;;49.67;16.08;;;;;;;;;;5045110;28;20056;-74
2024/01/13 02:05:40;;;;;;;39.22;15.02;;;;;;;;;;5026594;28;20035;-74
2024/01/13 02:08:06;;;;;;;41.08;15.80;;;;;;;;;;5045379;28;20037;-75
2024/01/13 02:10:32;;;;;;;35.47;14.18;;;;;;;;;;5025614;28;20135;-74
2024/01/13 02:12:57;;;;;;;34.00;12.50;;;;;;;;;;5025269;28;20064;-74
2024/01/13 02:15:22;;;;;;;34.30;13.65;;;;;;;;;;5025646;28;20059;-75
2024/01/13 02:17:48;;;;;;;37.92;13.02;;;;;;;;;;5024721;28;20036;-74
2024/01/13 02:20:13;;;;;;;30.27;12.75;;;;;;;;;;5025020;28;20506;-74
2024/01/13 02:22:39;;;;;;;35.25;14.10;;;;;;;;;;5021134;28;20041;-74
2024/01/13 02:25:05;;;;;;;39.33;14.95;;;;;;;;;;5001739;28;20044;-74
2024/01/13 02:27:30;;;;;;;45.75;16.20;;;;;;;;;;5025169;28;20041;-75
2024/01/13 02:29:56;;;;;;;39.58;14.43;;;;;;;;;;5024540;28;20037;-75
2024/01/13 02:32:21;;;;;;;37.67;13.70;;;;;;;;;;5025244;28;20034;-74
2024/01/13 02:34:47;;;;;;;38.38;13.88;;;;;;;;;;5025110;28;20659;-74
2024/01/13 02:37:13;;;;;;;35.78;13.07;;;;;;;;;;5006544;28;20032;-74
2024/01/13 02:39:38;;;;;;;41.08;14.82;;;;;;;;;;5006168;28;20527;-74
2024/01/13 02:42:04;;;;;;;40.45;14.05;;;;;;;;;;5007074;28;20167;-74
2024/01/13 02:44:29;;;;;;;36.22;14.82;;;;;;;;;;5024684;28;20446;-74
2024/01/13 02:46:55;;;;;;;37.05;13.98;;;;;;;;;;5024476;28;20045;-74
2024/01/13 02:49:20;;;;;;;43.15;14.85;;;;;;;;;;5024882;28;20063;-74
2024/01/13 02:51:46;;;;;;;38.42;14.43;;;;;;;;;;5024614;28;20033;-75
2024/01/13 02:54:11;;;;;;;38.20;14.40;;;;;;;;;;5023712;28;20034;-74
2024/01/13 02:56:37;;;;;;;44.03;13.80;;;;;;;;;;5013331;28;20030;-74
2024/01/13 02:59:02;;;;;;;40.40;14.25;;;;;;;;;;5003614;28;20062;-74
2024/01/13 03:01:30;;;;;;;39.55;14.50;;;;;;;;;;5005653;28;20049;-74
2024/01/13 03:03:56;;;;;;;36.83;14.40;;;;;;;;;;5005448;28;20057;-74
2024/01/13 03:06:22;;;;;;;35.10;13.68;;;;;;;;;;5014221;28;20042;-74
2024/01/13 03:08:48;;;;;;;33.00;11.77;;;;;;;;;;5015075;28;20033;-74
2024/01/13 03:11:13;;;;;;;32.92;13.35;;;;;;;;;;5009749;28;20537;-73
2024/01/13 03:13:38;;;;;;;34.42;11.52;;;;;;;;;;5008469;28;20200;-74
2024/01/13 03:16:05;;;;;;;29.90;12.55;;;;;;;;;;5008490;28;20033;-74
2024/01/13 03:18:31;;;;;;;33.38;13.60;;;;;;;;;;5009156;28;20037;-74
2024/01/13 03:20:56;;;;;;;31.88;12.10;;;;;;;;;;5008074;28;20030;-74
2024/01/13 03:23:21;;;;;;;32.63;12.80;;;;;;;;;;4997265;28;20116;-74
2024/01/13 03:25:47;;;;;;;36.75;14.02;;;;;;;;;;5008468;28;20033;-73
2024/01/13 03:28:12;;;;;;;36.03;12.82;;;;;;;;;;4991320;28;20564;-73
2024/01/13 03:30:37;;;;;;;42.33;14.65;;;;;;;;;;5008157;28;20044;-73
2024/01/13 03:33:03;;;;;;;33.05;13.32;;;;;;;;;;4990393;28;20037;-73
2024/01/13 03:35:28;;;;;;;32.47;13.65;;;;;;;;;;4990584;28;20107;-74
2024/01/13 03:37:54;;;;;;;36.42;14.13;;;;;;;;;;4997858;28;20034;-74
2024/01/13 03:40:20;;;;;;;29.30;13.02;;;;;;;;;;5004324;28;20058;-73
2024/01/13 03:42:45;;;;;;;35.67;14.32;;;;;;;;;;5043293;28;20040;-73
2024/01/13 03:45:12;;;;;;;35.10;13.52;;;;;;;;;;5048111;28;20029;-73
2024/01/13 03:47:39;;;;;;;35.75;13.85;;;;;;;;;;5047243;28;20037;-74
2024/01/13 03:50:06;;;;;;;36.90;14.63;;;;;;;;;;5047161;28;20039;-74
2024/01/13 03:52:31;;;;;;;35.20;14.18;;;;;;;;;;5029935;28;20410;-74
2024/01/13 03:54:57;;;;;;;40.55;14.80;;;;;;;;;;5029994;28;20624;-74
2024/01/13 03:57:22;;;;;;;34.90;13.20;;;;;;;;;;5009767;28;20021;-74
2024/01/13 03:59:47;;;;;;;36.75;13.65;;;;;;;;;;5027281;28;20569;-74
2024/01/13 04:02:13;;;;;;;34.35;12.18;;;;;;;;;;5009446;28;20224;-73
2024/01/13 04:04:38;;;;;;;33.53;12.70;;;;;;;;;;5027575;28;20116;-74
2024/01/13 04:07:03;;;;;;;39.38;13.85;;;;;;;;;;5028198;28;20068;-73
2024/01/13 04:09:29;;;;;;;31.33;12.18;;;;;;;;;;5021983;28;20096;-74
2024/01/13 04:11:54;;;;;;;35.55;12.63;;;;;;;;;;5027699;28;20543;-74
2024/01/13 04:14:19;;;;;;;31.38;11.38;;;;;;;;;;5027186;28;20112;-74
2024/01/13 04:16:45;;;;;;;32.10;11.95;;;;;;;;;;5009108;28;20022;-74
2024/01/13 04:19:10;;;;;;;32.30;11.85;;;;;;;;;;5028146;28;20018;-74
2024/01/13 04:21:36;;;;;;;35.03;11.50;;;;;;;;;;5027532;28;20029;-74
2024/01/13 04:24:04;;;;;;;31.17;11.80;;;;;;;;;;5020286;28;20104;-74
2024/01/13 04:26:29;;;;;;;37.40;12.35;;;;;;;;;;4999142;28;20034;-74
2024/01/13 04:28:55;;;;;;;35.40;12.50;;;;;;;;;;5008912;28;20510;-74
2024/01/13 04:31:20;;;;;;;34.20;12.68;;;;;;;;;;4990019;28;20061;-74
2024/01/13 04:33:45;;;;;;;31.30;12.27;;;;;;;;;;4989587;28;20034;-74
2024/01/13 04:36:11;;;;;;;34.97;12.43;;;;;;;;;;5016037;28;20041;-74
2024/01/13 04:38:36;;;;;;;32.42;12.27;;;;;;;;;;5024713;28;20037;-74
2024/01/13 04:41:02;;;;;;;37.90;12.75;;;;;;;;;;5008482;28;20075;-74
2024/01/13 04:43:28;;;;;;;31.85;10.57;;;;;;;;;;5009421;28;20026;-74
2024/01/13 04:45:54;;;;;;;32.28;12.02;;;;;;;;;;5027228;28;20581;-74
2024/01/13 04:48:19;;;;;;;31.23;10.95;;;;;;;;;;5025775;28;20045;-74
2024/01/13 04:50:45;;;;;;;29.48;11.57;;;;;;;;;;5007936;28;20044;-74
2024/01/13 04:53:10;;;;;;;29.92;12.25;;;;;;;;;;5035131;28;20034;-75
2024/01/13 04:55:36;;;;;;;30.65;11.73;;;;;;;;;;5019517;28;20014;-74
2024/01/13 04:58:02;;;;;;;33.20;11.68;;;;;;;;;;5003442;28;20022;-74
2024/01/13 05:00:28;;;;;;;28.90;11.52;;;;;;;;;;5002830;28;20082;-73
2024/01/13 05:02:53;;;;;;;31.77;11.73;;;;;;;;;;5003219;28;20050;-74
2024/01/13 05:05:19;;;;;;;33.75;11.38;;;;;;;;;;4994850;28;20053;-73
2024/01/13 05:07:44;;;;;;;35.17;12.27;;;;;;;;;;5005534;28;20018;-74
2024/01/13 05:10:09;;;;;;;31.83;12.48;;;;;;;;;;5022768;28;20029;-73
2024/01/13 05:12:35;;;;;;;26.75;12.00;;;;;;;;;;5008719;28;20033;-74
2024/01/13 05:15:00;;;;;;;34.33;12.77;;;;;;;;;;5008523;28;20116;-74
2024/01/13 05:17:26;;;;;;;33.85;12.15;;;;;;;;;;5008296;28;20518;-74
2024/01/13 05:19:51;;;;;;;32.05;11.73;;;;;;;;;;5026402;28;20033;-74
2024/01/13 05:22:16;;;;;;;39.22;11.88;;;;;;;;;;5025909;28;20017;-74
2024/01/13 05:24:42;;;;;;;32.05;12.57;;;;;;;;;;5005831;28;20181;-74
2024/01/13 05:27:08;;;;;;;31.98;11.55;;;;;;;;;;4988500;28;20507;-73
2024/01/13 05:29:33;;;;;;;34.10;11.75;;;;;;;;;;5006293;28;20388;-74
2024/01/13 05:31:59;;;;;;;30.15;11.95;;;;;;;;;;4988467;28;20837;-74
2024/01/13 05:34:24;;;;;;;35.28;11.68;;;;;;;;;;5006066;28;20029;-74
2024/01/13 05:36:49;;;;;;;28.85;12.45;;;;;;;;;;5007608;28;20041;-73
2024/01/13 05:39:15;;;;;;;36.50;11.88;;;;;;;;;;5015526;28;20038;-74
2024/01/13 05:41:40;;;;;;;32.97;11.48;;;;;;;;;;4988925;28;20506;-74
2024/01/13 05:44:05;;;;;;;28.90;11.07;;;;;;;;;;5005439;28;20049;-74
2024/01/13 05:46:31;;;;;;;29.52;11.98;;;;;;;;;;5009172;28;20478;-72
2024/01/13 05:48:58;;;;;;;33.92;12.32;;;;;;;;;;5020548;28;20038;-74
2024/01/13 05:51:23;;;;;;;32.40;11.95;;;;;;;;;;5017911;28;20032;-74
2024/01/13 05:53:49;;;;;;;29.67;10.88;;;;;;;;;;5005126;28;20038;-74
2024/01/13 05:56:15;;;;;;;35.08;11.65;;;;;;;;;;5026962;28;20021;-74
2024/01/13 05:58:41;;;;;;;32.65;11.38;;;;;;;;;;5004434;28;20083;-74
2024/01/13 06:01:06;;;;;;;32.33;11.82;;;;;;;;;;5023797;28;20029;-73
2024/01/13 06:03:32;;;;;;;31.17;11.40;;;;;;;;;;4996396;28;20054;-73
2024/01/13 06:05:58;;;;;;;29.05;10.60;;;;;;;;;;5003548;28;20497;-74
2024/01/13 06:08:23;;;;;;;31.25;11.20;;;;;;;;;;4983758;28;20140;-73
2024/01/13 06:10:48;;;;;;;29.33;11.20;;;;;;;;;;4985183;28;20045;-73
2024/01/13 06:13:14;;;;;;;29.50;9.75;;;;;;;;;;4990630;28;20035;-73
2024/01/13 06:15:39;;;;;;;29.73;10.38;;;;;;;;;;4978451;28;20048;-73
2024/01/13 06:18:04;;;;;;;28.77;10.40;;;;;;;;;;4994502;28;20046;-73
2024/01/13 06:20:31;;;;;;;26.20;9.90;;;;;;;;;;5002171;28;20062;-74
2024/01/13 06:22:56;;;;;;;26.98;9.68;;;;;;;;;;4995394;28;20062;-73
2024/01/13 06:25:21;;;;;;;29.38;10.23;;;;;;;;;;5016976;28;20040;-73
2024/01/13 06:27:47;;;;;;;25.33;10.18;;;;;;;;;;4998201;28;20041;-73
2024/01/13 06:30:12;;;;;;;26.25;9.23;;;;;;;;;;5016168;28;20034;-73
2024/01/13 06:32:38;;;;;;;29.50;10.02;;;;;;;;;;4999392;28;20120;-73
2024/01/13 06:35:04;;;;;;;25.98;9.25;;;;;;;;;;5000287;28;20038;-73
2024/01/13 06:37:29;;;;;;;32.25;12.15;;;;;;;;;;5002104;28;20073;-74
2024/01/13 06:39:55;;;;;;;31.63;11.88;;;;;;;;;;4982002;28;20057;-73
2024/01/13 06:42:20;;;;;;;27.75;11.13;;;;;;;;;;4998975;28;20061;-74
2024/01/13 06:44:46;;;;;;;36.15;11.95;;;;;;;;;;5002696;28;20034;-73
2024/01/13 06:47:11;;;;;;;28.60;10.32;;;;;;;;;;4991212;28;20033;-73
2024/01/13 06:49:37;;;;;;;31.98;10.93;;;;;;;;;;5008419;28;20032;-74
2024/01/13 06:52:02;;;;;;;24.20;10.43;;;;;;;;;;4991750;28;20615;-73
2024/01/13 06:54:27;;;;;;;39.75;12.70;;;;;;;;;;4997334;28;20042;-73
2024/01/13 06:56:53;;;;;;;30.38;10.77;;;;;;;;;;4989936;28;20034;-74
2024/01/13 06:59:19;;;;;;;29.08;11.00;;;;;;;;;;4988912;28;20038;-74
2024/01/13 07:01:47;;;;;;;25.02;9.77;;;;;;;;;;5017141;28;20045;-74
2024/01/13 07:04:12;;;;;;;31.65;11.05;;;;;;;;;;5010126;28;20180;-74
2024/01/13 07:06:38;;;;;;;30.10;11.13;;;;;;;;;;5010652;28;20120;-74
2024/01/13 07:09:03;;;;;;;37.15;11.73;;;;;;;;;;5025364;28;20120;-74
2024/01/13 07:11:29;;;;;;;33.95;12.40;;;;;;;;;;5026250;28;20044;-74
2024/01/13 07:13:54;;;;;;;36.90;12.98;;;;;;;;;;5028249;28;20033;-74
2024/01/13 07:16:19;;;;;;;35.85;12.57;;;;;;;;;;5027212;28;20026;-74
2024/01/13 07:18:45;;;;;;;33.15;11.75;;;;;;;;;;5028082;28;20044;-74
2024/01/13 07:21:11;;;;;;;30.17;11.57;;;;;;;;;;5027625;28;20044;-74
2024/01/13 07:23:36;;;;;;;32.55;11.00;;;;;;;;;;4997765;28;20116;-74
2024/01/13 07:26:01;;;;;;;24.33;9.75;;;;;;;;;;4989944;28;20522;-75
2024/01/13 07:28:27;;;;;;;28.08;9.68;;;;;;;;;;5019227;28;20025;-74
2024/01/13 07:30:52;;;;;;;33.88;12.13;;;;;;;;;;5007552;28;20061;-74
2024/01/13 07:33:18;;;;;;;25.63;9.80;;;;;;;;;;5026042;28;20033;-75
2024/01/13 07:35:43;;;;;;;31.63;10.65;;;;;;;;;;5007671;28;20033;-75
2024/01/13 07:38:09;;;;;;;28.60;11.32;;;;;;;;;;4989525;28;20034;-75
2024/01/13 07:40:35;;;;;;;32.22;10.48;;;;;;;;;;5005074;28;20117;-74
2024/01/13 07:43:00;;;;;;;32.83;10.18;;;;;;;;;;5006969;28;20037;-74
2024/01/13 07:45:25;;;;;;;27.70;10.32;;;;;;;;;;4986956;28;20049;-75
2024/01/13 07:47:51;;;;;;;29.48;10.57;;;;;;;;;;4986315;28;20046;-75
2024/01/13 07:50:17;;;;;;;30.65;9.93;;;;;;;;;;5024116;28;20097;-75
2024/01/13 07:52:42;;;;;;;30.83;9.95;;;;;;;;;;5023454;28;20898;-74
2024/01/13 07:55:08;;;;;;;25.30;10.05;;;;;;;;;;5007626;28;20037;-75
2024/01/13 07:57:35;;;;;;;29.77;10.85;;;;;;;;;;5003211;28;20044;-75
2024/01/13 08:00:00;;;;;;;31.23;11.13;;;;;;;;;;5003420;28;20041;-75
2024/01/13 08:02:26;;;;;;;27.42;10.07;;;;;;;;;;5004051;28;20898;-74
2024/01/13 08:04:51;;;;;;;25.55;9.98;;;;;;;;;;5004830;28;20028;-74
2024/01/13 08:07:17;;;;;;;31.23;10.15;;;;;;;;;;5006609;28;20056;-74
2024/01/13 08:09:42;;;;;;;36.67;11.02;;;;;;;;;;5001460;28;20116;-73
2024/01/13 08:12:08;;;;;;;26.45;9.88;;;;;;;;;;5010062;28;20562;-74
2024/01/13 08:14:33;;;;;;;31.15;10.73;;;;;;;;;;5009021;28;20033;-74
2024/01/13 08:16:59;;;;;;;27.25;10.25;;;;;;;;;;5027904;28;20750;-74
2024/01/13 08:19:24;;;;;;;25.10;9.40;;;;;;;;;;5014068;28;20057;-74
2024/01/13 08:21:50;;;;;;;29.17;10.75;;;;;;;;;;5021716;28;20100;-73
2024/01/13 08:24:16;;;;;;;31.05;9.93;;;;;;;;;;5026277;28;20121;-74
2024/01/13 08:26:42;;;;;;;32.80;11.57;;;;;;;;;;5009524;28;20128;-75
2024/01/13 08:29:07;;;;;;;25.33;9.70;;;;;;;;;;5026190;28;20053;-74
2024/01/13 08:31:33;;;;;;;24.77;8.85;;;;;;;;;;5027031;28;20021;-74
2024/01/13 08:33:58;;;;;;;30.00;11.07;;;;;;;;;;5025423;28;20041;-74
2024/01/13 08:36:24;;;;;;;31.10;9.30;;;;;;;;;;5007859;28;20030;-74
2024/01/13 08:38:49;;;;;;;25.08;10.10;;;;;;;;;;4992909;28;20241;-74
2024/01/13 08:41:14;;;;;;;26.98;9.45;;;;;;;;;;4989087;28;20111;-74
2024/01/13 08:43:40;;;;;;;26.60;10.43;;;;;;;;;;5000279;28;20075;-74
2024/01/13 08:46:08;;;;;;;30.73;11.23;;;;;;;;;;5026379;28;20560;-74
2024/01/13 08:48:34;;;;;;;22.65;9.23;;;;;;;;;;5024127;28;20041;-74
2024/01/13 08:51:00;;;;;;;35.65;10.75;;;;;;;;;;5022930;28;20136;-74
2024/01/13 08:53:27;;;;;;;32.25;10.70;;;;;;;;;;5001796;28;20051;-74
2024/01/13 08:55:52;;;;;;;27.02;9.57;;;;;;;;;;5017247;28;20034;-75
2024/01/13 08:58:18;;;;;;;26.75;10.23;;;;;;;;;;5018590;28;20028;-74
2024/01/13 09:00:43;;;;;;;26.02;10.27;;;;;;;;;;5021189;28;20091;-74
2024/01/13 09:03:08;;;;;;;26.33;9.38;;;;;;;;;;5021969;28;20423;-76
2024/01/13 09:05:34;;;;;;;31.45;10.75;;;;;;;;;;5022222;28;20034;-74
2024/01/13 09:07:59;;;;;;;29.67;11.38;;;;;;;;;;5023838;28;20053;-74
2024/01/13 09:10:25;;;;;;;29.20;10.48;;;;;;;;;;5021148;28;20080;-75
2024/01/13 09:12:50;;;;;;;32.42;11.18;;;;;;;;;;5020179;28;20068;-76
2024/01/13 09:15:16;;;;;;;26.55;10.70;;;;;;;;;;5001975;28;20068;-76
2024/01/13 09:17:41;;;;;;;27.38;10.15;;;;;;;;;;5021033;28;20079;-76
2024/01/13 09:20:09;;;;;;;27.20;10.43;;;;;;;;;;5004532;28;20049;-75
2024/01/13 09:22:35;;;;;;;25.50;9.40;;;;;;;;;;5007484;28;20033;-75
2024/01/13 09:25:01;;;;;;;25.90;10.85;;;;;;;;;;5026591;28;20685;-76
2024/01/13 09:27:26;;;;;;;35.70;11.85;;;;;;;;;;5024502;28;20104;-76
2024/01/13 09:29:52;;;;;;;28.77;10.82;;;;;;;;;;5007417;28;20084;-76
2024/01/13 09:32:17;;;;;;;29.98;10.50;;;;;;;;;;5025529;28;20113;-76
2024/01/13 09:34:43;;;;;;;28.05;10.98;;;;;;;;;;5017828;28;20029;-74
2024/01/13 09:37:10;;;;;;;33.20;11.55;;;;;;;;;;5024545;28;20021;-74
2024/01/13 09:39:35;;;;;;;36.53;12.30;;;;;;;;;;5012972;28;20054;-74
2024/01/13 09:42:02;;;;;;;35.38;11.45;;;;;;;;;;5027625;28;20077;-73
2024/01/13 09:44:29;;;;;;;26.77;9.73;;;;;;;;;;5035701;28;20683;-78
2024/01/13 09:47:01;;;;;;;31.55;11.45;;;;;;;;;;5012920;28;20045;-74
2024/01/13 09:49:29;;;;;;;35.10;11.25;;;;;;;;;;5020158;28;20040;-76
2024/01/13 09:51:55;;;;;;;32.00;11.10;;;;;;;;;;5018985;28;20038;-76
2024/01/13 09:54:24;;;;;;;34.83;11.05;;;;;;;;;;5023757;28;20131;-76
2024/01/13 09:56:51;;;;;;;29.25;10.65;;;;;;;;;;5021948;28;20246;-76
2024/01/13 09:59:16;;;;;;;28.63;11.45;;;;;;;;;;5009352;28;20033;-76
2024/01/13 10:01:42;;;;;;;33.35;12.65;;;;;;;;;;5025230;28;20040;-76
2024/01/13 10:04:08;;;;;;;27.23;10.38;;;;;;;;;;5009665;28;20046;-78
2024/01/13 10:06:35;;;;;;;31.38;11.25;;;;;;;;;;5027449;28;20750;-76
2024/01/13 10:09:02;;;;;;;36.08;11.43;;;;;;;;;;5027220;28;20086;-76
2024/01/13 10:11:28;;;;;;;29.40;11.93;;;;;;;;;;5007089;28;20037;-76
2024/01/13 10:14:01;;;;;;;36.05;12.20;;;;;;;;;;5008484;28;20404;-76
2024/01/13 10:16:31;;;;;;;29.88;11.30;;;;;;;;;;5008534;28;20107;-77
2024/01/13 10:19:01;;;;;;;33.53;10.90;;;;;;;;;;5007527;28;20423;-76
2024/01/13 10:21:27;;;;;;;30.92;11.68;;;;;;;;;;5012164;28;20041;-76
2024/01/13 10:23:57;;;;;;;30.60;10.75;;;;;;;;;;5024243;28;20034;-76
2024/01/13 10:26:26;;;;;;;29.13;10.88;;;;;;;;;;5008253;28;20587;-76
2024/01/13 10:28:52;;;;;;;29.40;11.35;;;;;;;;;;5022534;28;20044;-76
2024/01/13 10:31:18;;;;;;;33.20;11.85;;;;;;;;;;5027977;28;20025;-76
2024/01/13 10:33:47;;;;;;;32.60;11.90;;;;;;;;;;5028390;28;20045;-76
2024/01/13 10:36:19;;;;;;;29.10;12.35;;;;;;;;;;5023587;28;20599;-76
2024/01/13 10:38:44;;;;;;;30.70;11.38;;;;;;;;;;4993102;28;20030;-76
2024/01/13 10:41:10;;;;;;;35.30;13.07;;;;;;;;;;4990040;28;20073;-76
2024/01/13 10:43:38;;;;;;;33.58;10.88;;;;;;;;;;5010319;28;20033;-74
2024/01/13 10:46:09;;;;;;;27.25;10.13;;;;;;;;;;5009675;28;20029;-76
2024/01/13 10:48:45;;;;;;;31.77;11.45;;;;;;;;;;5027892;28;20038;-76
2024/01/13 10:51:33;;;;;;;34.55;12.38;;;;;;;;;;5023278;28;20327;-76
2024/01/13 10:54:00;;;;;;;32.03;11.80;;;;;;;;;;5025484;28;20041;-79
2024/01/13 10:56:27;;;;;;;39.53;13.38;;;;;;;;;;5017226;28;20037;-76
2024/01/13 10:58:54;;;;;;;32.33;11.50;;;;;;;;;;5022547;28;20064;-75
2024/01/13 11:01:20;;;;;;;34.63;12.15;;;;;;;;;;5032944;28;20053;-76
2024/01/13 11:03:47;;;;;;;34.15;11.15;;;;;;;;;;5015480;28;20058;-74
2024/01/13 11:06:13;;;;;;;34.42;11.38;;;;;;;;;;5016576;28;20049;-76
2024/01/13 11:08:38;;;;;;;31.30;10.60;;;;;;;;;;5019687;28;20034;-76
2024/01/13 11:11:07;;;;;;;32.92;10.43;;;;;;;;;;5027733;28;20025;-76
2024/01/13 11:13:39;;;;;;;26.25;10.57;;;;;;;;;;5029194;28;20131;-76
2024/01/13 11:16:08;;;;;;;40.25;12.70;;;;;;;;;;5010234;28;20045;-76
2024/01/13 11:18:38;;;;;;;29.27;10.77;;;;;;;;;;5027626;28;20033;-76
2024/01/13 11:21:04;;;;;;;27.05;9.98;;;;;;;;;;5027239;28;20037;-76
2024/01/13 11:23:44;;;;;;;30.95;11.23;;;;;;;;;;5027473;28;20037;-76
2024/01/13 11:26:11;;;;;;;35.55;11.73;;;;;;;;;;5028452;28;20033;-76
2024/01/13 11:29:02;;;;;;;27.15;10.05;;;;;;;;;;5009816;28;20049;-76
2024/01/13 11:31:41;;;;;;;27.50;10.43;;;;;;;;;;5025009;28;20037;-75
2024/01/13 11:34:08;;;;;;;32.92;9.68;;;;;;;;;;5030923;28;20045;-76
2024/01/13 11:36:35;;;;;;;32.83;11.98;;;;;;;;;;5031008;28;20538;-76
2024/01/13 11:39:03;;;;;;;31.83;10.85;;;;;;;;;;5010587;28;20165;-75
2024/01/13 11:41:41;;;;;;;26.15;9.73;;;;;;;;;;5011240;28;20026;-76
2024/01/13 11:44:08;;;;;;;29.83;11.13;;;;;;;;;;5011010;28;20034;-76
2024/01/13 11:46:37;;;;;;;30.30;11.32;;;;;;;;;;5011308;28;20032;-74
2024/01/13 11:49:06;;;;;;;29.13;10.60;;;;;;;;;;5018779;28;20029;-76
2024/01/13 11:51:59;;;;;;;30.80;11.80;;;;;;;;;;5029792;28;20041;-76
2024/01/13 11:54:26;;;;;;;21.67;8.20;;;;;;;;;;5030717;28;20067;-75
2024/01/13 11:56:52;;;;;;;28.88;11.65;;;;;;;;;;5029963;28;20144;-74
2024/01/13 11:59:18;;;;;;;33.33;10.90;;;;;;;;;;5031593;28;20044;-74
2024/01/13 12:01:45;;;;;;;30.00;10.80;;;;;;;;;;5029171;28;20659;-76
2024/01/13 12:04:11;;;;;;;31.38;11.18;;;;;;;;;;5030151;28;20088;-76
2024/01/13 12:06:36;;;;;;;32.28;12.10;;;;;;;;;;5012296;28;20455;-76
2024/01/13 12:09:01;;;;;;;35.25;11.48;;;;;;;;;;5043123;28;20564;-74
2024/01/13 12:11:27;;;;;;;33.75;11.75;;;;;;;;;;5050110;28;20415;-76
2024/01/13 12:13:53;;;;;;;40.63;12.52;;;;;;;;;;5051379;28;20112;-76
2024/01/13 12:16:18;;;;;;;35.35;13.05;;;;;;;;;;5033301;28;20077;-76
2024/01/13 12:18:47;;;;;;;26.73;10.77;;;;;;;;;;5036530;28;20037;-76
2024/01/13 12:21:14;;;;;;;31.55;10.95;;;;;;;;;;5028994;28;20112;-76
2024/01/13 12:23:42;;;;;;;31.42;11.40;;;;;;;;;;5020306;28;20045;-76
2024/01/13 12:26:08;;;;;;;29.13;12.00;;;;;;;;;;5030433;28;20632;-76
2024/01/13 12:28:34;;;;;;;32.25;10.77;;;;;;;;;;5030101;28;20030;-76
2024/01/13 12:31:03;;;;;;;31.27;11.82;;;;;;;;;;5020259;28;20045;-76
2024/01/13 12:33:31;;;;;;;31.88;9.98;;;;;;;;;;5042121;28;20037;-76
2024/01/13 12:36:01;;;;;;;42.25;13.85;;;;;;;;;;5033520;28;20037;-76
2024/01/13 12:38:30;;;;;;;42.83;14.98;;;;;;;;;;5034472;28;20421;-76
2024/01/13 12:40:57;;;;;;;25.98;7.97;;;;;;;;;;5031078;28;20048;-77
2024/01/13 12:43:26;;;;;;;29.38;11.02;;;;;;;;;;5033024;28;20053;-76
2024/01/13 12:45:52;;;;;;;28.30;10.00;;;;;;;;;;5015733;28;20105;-77
2024/01/13 12:48:19;;;;;;;33.63;11.88;;;;;;;;;;5029277;28;20522;-77
2024/01/13 12:50:45;;;;;;;29.45;10.85;;;;;;;;;;5011316;28;20057;-77
2024/01/13 12:53:11;;;;;;;33.28;11.73;;;;;;;;;;5028249;28;20637;-77
2024/01/13 12:55:37;;;;;;;28.88;10.55;;;;;;;;;;5028057;28;20021;-76
2024/01/13 12:58:03;;;;;;;39.60;13.75;;;;;;;;;;5011500;28;20493;-77
2024/01/13 13:00:29;;;;;;;35.33;11.98;;;;;;;;;;5020634;28;20026;-76
2024/01/13 13:02:57;;;;;;;28.25;11.55;;;;;;;;;;5008105;28;20513;-77
2024/01/13 13:05:23;;;;;;;34.42;11.55;;;;;;;;;;4990845;28;20061;-77
2024/01/13 13:07:49;;;;;;;35.08;11.98;;;;;;;;;;4996285;28;20054;-77
2024/01/13 13:10:15;;;;;;;28.70;10.65;;;;;;;;;;5048602;28;20104;-76
2024/01/13 13:12:45;;;;;;;30.27;11.82;;;;;;;;;;5027629;28;20263;-77
2024/01/13 13:15:10;;;;;;;29.70;10.52;;;;;;;;;;5014038;28;20062;-78
2024/01/13 13:17:36;;;;;;;32.25;11.00;;;;;;;;;;5017905;28;20065;-77
2024/01/13 13:20:02;;;;;;;30.65;11.43;;;;;;;;;;5003640;28;20037;-76
2024/01/13 13:22:28;;;;;;;34.88;12.20;;;;;;;;;;5026360;28;20029;-78
2024/01/13 13:24:54;;;;;;;32.20;10.95;;;;;;;;;;5027672;28;20037;-79
2024/01/13 13:27:20;;;;;;;24.83;9.25;;;;;;;;;;5037253;28;20061;-78
2024/01/13 13:29:45;;;;;;;37.35;13.15;;;;;;;;;;5042068;28;20136;-78
2024/01/13 13:32:11;;;;;;;30.77;11.60;;;;;;;;;;5042391;28;20045;-76
2024/01/13 13:34:36;;;;;;;30.67;10.48;;;;;;;;;;5037859;28;20013;-76
2024/01/13 13:37:04;;;;;;;30.33;11.15;;;;;;;;;;5032166;28;20005;-75
2024/01/13 13:39:34;;;;;;;34.55;10.30;;;;;;;;;;5019900;28;20076;-76
2024/01/13 13:41:59;;;;;;;32.83;13.75;;;;;;;;;;5037084;28;20077;-77
2024/01/13 13:44:25;;;;;;;29.33;8.35;;;;;;;;;;5010282;28;20454;-76
2024/01/13 13:46:51;;;;;;;35.90;11.93;;;;;;;;;;5027909;28;20033;-76
2024/01/13 13:49:16;;;;;;;27.42;10.45;;;;;;;;;;5010547;28;20029;-76
2024/01/13 13:51:41;;;;;;;35.50;10.80;;;;;;;;;;5027840;28;20060;-76
2024/01/13 13:54:07;;;;;;;40.03;13.18;;;;;;;;;;5010828;28;20164;-76
2024/01/13 13:56:32;;;;;;;35.88;11.90;;;;;;;;;;5030632;28;20113;-76
2024/01/13 13:58:58;;;;;;;30.33;10.07;;;;;;;;;;5036803;28;20085;-76
2024/01/13 14:01:23;;;;;;;37.63;11.18;;;;;;;;;;5029148;28;20032;-76
2024/01/13 14:03:49;;;;;;;20.67;8.32;;;;;;;;;;4989811;28;20050;-75
2024/01/13 14:06:14;;;;;;;46.25;13.15;;;;;;;;;;4996039;28;20526;-76
2024/01/13 14:08:40;;;;;;;29.83;9.95;;;;;;;;;;4996285;28;20124;-76
2024/01/13 14:11:06;;;;;;;40.42;12.68;;;;;;;;;;5005688;28;20124;-76
2024/01/13 14:13:32;;;;;;;33.65;11.32;;;;;;;;;;4990313;28;20049;-77